Route Details

Aircraft Information
Group: North America Fleet
Types: B738, B752, B762, B763
Route Data
Distance: 349nm
Duration: 0h 00m
Origin METAR: KILN 191054Z AUTO 00000KT 5SM BR CLR 23/21 A3025 RMK AO2 SLP227 T02280211
Dest. METAR: KATL 191052Z 11009KT 10SM BKN200 22/17 A3023 RMK AO2 SLP225 T02170172 $
Freight Data
(for Jun 19, 2024)
Load Factor:
34%
Manifested Cargo: 20,541lbs
Financial History
Total Freight: 52,800lbs
Average Load: 0lbs/flt
Fuel Used: 7,449lbs
Avg. Fuel Used: 0lbs/flt
Fuel Expense: $3,129
Avg. Fuel Expense: $0
Avg. Fuel Cost: $0/lbs
Total Gross Income: $134,640
Pilot Pay: $79
Total Expenses: $32,079
Total Revenue: $99,306
Average Revenue: $0

Capitol Logistics 301




KILN
Wilmington Air Park
Wilmington, Ohio
KATL
Hartsfield - Jackson Atlanta International Airport
Atlanta, Georgia

Activity Log

Date Flight Route Aircraft Duration
03/10/2023 CPX301 Not Available B738 0h 51m